Time;durP1;ratioP1;P1;durP2;ratioP2;P2;SDS_P1;SDS_P2;PMS_P1;PMS_P2;Temp;Humidity;BMP_temperature;BMP_pressure;BME280_temperature;BME280_humidity;BME280_pressure;Samples;Min_cycle;Max_cycle;Signal;HPM_P1;HPM_P2
2023/04/10 00:01:13;;;;;;;15.90;11.52;;;12.10;78.20;;;;;;4938611;29;20122;-84
2023/04/10 00:03:38;;;;;;;15.73;12.05;;;12.00;78.20;;;;;;4957170;29;20042;-85
2023/04/10 00:06:04;;;;;;;14.88;12.07;;;12.10;78.20;;;;;;4961334;29;20031;-85
2023/04/10 00:08:30;;;;;;;14.70;11.15;;;12.10;78.20;;;;;;4961599;29;20027;-85
2023/04/10 00:10:55;;;;;;;15.63;12.13;;;12.10;78.30;;;;;;4960721;29;20030;-85
2023/04/10 00:13:21;;;;;;;15.30;11.82;;;12.10;78.20;;;;;;4943685;29;20035;-84
2023/04/10 00:15:47;;;;;;;15.82;11.98;;;12.10;78.20;;;;;;4942909;29;20552;-84
2023/04/10 00:18:12;;;;;;;14.25;11.55;;;12.10;78.30;;;;;;4942808;29;20027;-85
2023/04/10 00:20:38;;;;;;;16.42;12.20;;;12.10;78.20;;;;;;4945158;29;20056;-85
2023/04/10 00:23:04;;;;;;;15.18;12.18;;;12.00;78.10;;;;;;4964194;29;20035;-84
2023/04/10 00:25:29;;;;;;;15.68;12.38;;;12.00;78.10;;;;;;4945420;29;20027;-84
2023/04/10 00:27:55;;;;;;;16.10;12.52;;;12.00;78.10;;;;;;4945828;29;20531;-84
2023/04/10 00:30:20;;;;;;;15.82;12.30;;;12.10;78.10;;;;;;4945529;29;20086;-85
2023/04/10 00:32:46;;;;;;;15.90;12.38;;;12.10;78.10;;;;;;4958202;29;20031;-84
2023/04/10 00:35:12;;;;;;;16.00;12.27;;;12.10;78.00;;;;;;4943554;29;20035;-84
2023/04/10 00:37:37;;;;;;;15.38;11.98;;;12.00;78.10;;;;;;4962912;29;20031;-84
2023/04/10 00:40:05;;;;;;;14.52;11.90;;;12.10;78.10;;;;;;4940198;29;20114;-84
2023/04/10 00:42:30;;;;;;;15.88;12.35;;;12.10;78.20;;;;;;4943717;29;20023;-84
2023/04/10 00:44:56;;;;;;;18.02;13.27;;;12.00;78.10;;;;;;4961754;29;20023;-84
2023/04/10 00:47:22;;;;;;;15.88;12.40;;;12.00;78.10;;;;;;4943539;29;20079;-86
2023/04/10 00:49:47;;;;;;;16.90;12.18;;;12.00;78.10;;;;;;4947210;29;20539;-85
2023/04/10 00:52:13;;;;;;;15.93;12.70;;;12.00;78.20;;;;;;4945959;29;20027;-85
2023/04/10 00:54:39;;;;;;;16.73;12.88;;;12.00;78.10;;;;;;4947059;29;20078;-83
2023/04/10 00:57:05;;;;;;;15.13;12.25;;;12.00;78.20;;;;;;4946402;29;20488;-85
2023/04/10 00:59:30;;;;;;;15.85;12.85;;;12.00;78.10;;;;;;4946502;29;20031;-84
2023/04/10 01:01:56;;;;;;;16.88;12.38;;;12.00;78.10;;;;;;4963616;29;20042;-85
2023/04/10 01:04:22;;;;;;;16.17;12.95;;;12.00;78.20;;;;;;4945221;29;20034;-84
2023/04/10 01:07:01;;;;;;;16.90;12.85;;;12.00;78.20;;;;;;4962166;29;20110;-84
2023/04/10 01:10:02;;;;;;;16.90;12.95;;;12.00;78.20;;;;;;4944972;29;20055;-84
2023/04/10 01:12:53;;;;;;;15.50;12.02;;;12.00;78.30;;;;;;4943669;29;20567;-84
2023/04/10 01:15:22;;;;;;;16.23;12.75;;;12.00;78.10;;;;;;4956547;29;20396;-84
2023/04/10 01:17:53;;;;;;;16.25;13.13;;;12.00;78.20;;;;;;4961390;29;20054;-84
2023/04/10 01:20:24;;;;;;;17.67;13.38;;;12.00;78.10;;;;;;4961855;29;20027;-84
2023/04/10 01:22:59;;;;;;;17.13;13.47;;;12.00;78.70;;;;;;4961708;29;20023;-85
2023/04/10 01:25:46;;;;;;;16.67;13.32;;;12.00;78.10;;;;;;4961100;29;20019;-84
2023/04/10 01:28:20;;;;;;;16.35;13.13;;;12.00;78.10;;;;;;4943484;29;20046;-84
2023/04/10 01:30:56;;;;;;;17.73;13.55;;;12.00;78.10;;;;;;4942198;29;20541;-83
2023/04/10 01:33:28;;;;;;;16.55;13.63;;;12.00;78.10;;;;;;4960738;29;20380;-83
2023/04/10 01:35:57;;;;;;;16.67;13.32;;;12.00;78.10;;;;;;4960471;29;20024;-84
2023/04/10 01:38:25;;;;;;;17.48;13.27;;;12.00;78.20;;;;;;4943041;29;20437;-83
2023/04/10 01:40:52;;;;;;;17.40;13.38;;;12.00;78.20;;;;;;4941345;29;20463;-83
2023/04/10 01:43:20;;;;;;;18.27;14.05;;;12.00;78.10;;;;;;4940016;29;20058;-85
2023/04/10 01:45:48;;;;;;;17.45;13.90;;;12.00;78.00;;;;;;4943480;29;20082;-83
2023/04/10 01:48:15;;;;;;;17.33;12.90;;;12.00;78.10;;;;;;4940297;29;20028;-84
2023/04/10 01:50:41;;;;;;;17.27;13.55;;;12.00;78.10;;;;;;4956854;29;20023;-85
2023/04/10 01:53:06;;;;;;;17.63;13.77;;;12.00;78.10;;;;;;4939374;29;20543;-83
2023/04/10 01:55:32;;;;;;;16.00;12.93;;;12.00;78.10;;;;;;4941727;29;20077;-84
2023/04/10 01:57:58;;;;;;;16.40;13.30;;;12.00;78.10;;;;;;4958956;29;20070;-84
2023/04/10 02:00:24;;;;;;;17.65;13.90;;;12.00;78.10;;;;;;4941063;29;20117;-84
2023/04/10 02:02:50;;;;;;;17.92;14.38;;;12.00;78.10;;;;;;4941276;29;20536;-84
2023/04/10 02:05:16;;;;;;;17.77;13.32;;;12.00;78.10;;;;;;4939391;29;20031;-84
2023/04/10 02:07:50;;;;;;;16.90;13.50;;;12.00;78.00;;;;;;4940445;29;20392;-85
2023/04/10 02:10:23;;;;;;;18.25;13.80;;;12.00;78.10;;;;;;4957582;29;20015;-85
2023/04/10 02:12:57;;;;;;;17.27;13.75;;;12.00;78.00;;;;;;4938562;29;20396;-84
2023/04/10 02:15:26;;;;;;;18.17;13.68;;;12.00;78.00;;;;;;4955508;29;20113;-85
2023/04/10 02:17:53;;;;;;;17.85;13.77;;;12.00;78.40;;;;;;4938361;29;20084;-83
2023/04/10 02:20:19;;;;;;;16.85;13.60;;;12.00;78.00;;;;;;4937553;29;20035;-84
2023/04/10 02:22:45;;;;;;;18.17;14.00;;;12.00;78.00;;;;;;4956499;29;20028;-84
2023/04/10 02:25:11;;;;;;;16.13;13.27;;;12.00;78.10;;;;;;4939291;29;20024;-84
2023/04/10 02:27:37;;;;;;;17.65;14.70;;;12.00;78.00;;;;;;4939030;29;20395;-84
2023/04/10 02:30:03;;;;;;;18.52;14.32;;;12.00;78.00;;;;;;4955238;29;20024;-84
2023/04/10 02:32:30;;;;;;;17.05;13.68;;;12.00;78.00;;;;;;4933303;29;20437;-84
2023/04/10 02:34:55;;;;;;;18.75;14.63;;;12.00;78.00;;;;;;4938230;29;20082;-83
2023/04/10 02:37:22;;;;;;;18.05;14.27;;;12.00;78.00;;;;;;4937301;29;20031;-84
2023/04/10 02:39:47;;;;;;;16.48;13.57;;;12.00;78.00;;;;;;4937513;29;20027;-84
2023/04/10 02:42:13;;;;;;;17.67;14.18;;;12.00;77.90;;;;;;4937555;29;20492;-83
2023/04/10 02:44:38;;;;;;;18.20;14.55;;;12.00;77.90;;;;;;4937315;29;20038;-84
2023/04/10 02:47:04;;;;;;;17.88;14.07;;;12.00;77.80;;;;;;4938761;29;20031;-84
2023/04/10 02:49:30;;;;;;;17.88;14.38;;;12.00;77.90;;;;;;4938027;29;20030;-84
2023/04/10 02:51:56;;;;;;;17.38;13.80;;;12.00;77.80;;;;;;4937678;29;20396;-84
2023/04/10 02:54:22;;;;;;;16.77;13.82;;;12.00;77.80;;;;;;4954995;29;20059;-84
2023/04/10 02:56:47;;;;;;;18.58;14.63;;;12.00;77.80;;;;;;4937777;29;20027;-84
2023/04/10 02:59:13;;;;;;;19.65;15.20;;;12.00;77.80;;;;;;4938094;29;20051;-83
2023/04/10 03:01:38;;;;;;;17.75;14.52;;;12.00;77.80;;;;;;4937945;29;20042;-83
2023/04/10 03:04:04;;;;;;;18.42;13.63;;;12.00;77.80;;;;;;4938089;29;20063;-84
2023/04/10 03:06:30;;;;;;;18.02;14.18;;;12.00;77.80;;;;;;4938479;29;20027;-84
2023/04/10 03:08:55;;;;;;;18.58;14.65;;;12.00;77.80;;;;;;4937677;29;20026;-84
2023/04/10 03:11:21;;;;;;;18.48;14.52;;;12.00;77.80;;;;;;4937619;29;20396;-84
2023/04/10 03:13:47;;;;;;;18.33;13.77;;;12.00;77.80;;;;;;4937695;29;20023;-84
2023/04/10 03:16:13;;;;;;;17.63;14.05;;;12.00;77.70;;;;;;4937779;29;20558;-84
2023/04/10 03:18:39;;;;;;;20.05;15.25;;;11.90;77.60;;;;;;4937265;29;20031;-84
2023/04/10 03:21:05;;;;;;;17.58;14.00;;;12.00;77.70;;;;;;4936929;29;20031;-84
2023/04/10 03:23:30;;;;;;;17.30;13.80;;;12.00;77.70;;;;;;4937740;29;20027;-84
2023/04/10 03:25:56;;;;;;;18.05;14.63;;;12.00;77.80;;;;;;4936751;29;20076;-84
2023/04/10 03:28:22;;;;;;;17.15;14.00;;;12.00;77.60;;;;;;4954593;29;20027;-84
2023/04/10 03:30:49;;;;;;;18.27;14.63;;;12.00;77.60;;;;;;4944013;29;20477;-86
2023/04/10 03:33:14;;;;;;;18.35;14.05;;;12.00;77.50;;;;;;4944991;29;20030;-85
2023/04/10 03:35:40;;;;;;;18.63;14.63;;;12.00;77.60;;;;;;4944310;29;20031;-85
2023/04/10 03:38:06;;;;;;;19.00;15.32;;;11.90;77.50;;;;;;4944631;29;20035;-84
2023/04/10 03:40:33;;;;;;;17.52;13.90;;;12.00;77.70;;;;;;4943917;29;20027;-84
2023/04/10 03:42:59;;;;;;;16.77;13.70;;;12.00;77.60;;;;;;4940262;29;20117;-84
2023/04/10 03:45:24;;;;;;;18.92;14.68;;;11.90;77.50;;;;;;4958654;29;20031;-85
2023/04/10 03:47:51;;;;;;;17.77;13.88;;;11.90;77.60;;;;;;4943069;29;20085;-84
2023/04/10 03:50:17;;;;;;;17.67;14.20;;;11.90;77.50;;;;;;4942987;29;20090;-88
2023/04/10 03:52:43;;;;;;;18.42;14.23;;;11.90;77.60;;;;;;4943217;29;20050;-84
2023/04/10 03:55:09;;;;;;;17.65;13.75;;;11.90;77.50;;;;;;4945099;29;20034;-84
2023/04/10 03:57:34;;;;;;;17.60;13.98;;;11.90;77.30;;;;;;4947018;29;20027;-84
2023/04/10 04:00:00;;;;;;;19.75;15.00;;;11.90;77.30;;;;;;4946725;29;20035;-84
2023/04/10 04:02:25;;;;;;;17.98;14.27;;;11.90;77.30;;;;;;4945907;29;20023;-84
2023/04/10 04:04:51;;;;;;;18.17;14.25;;;11.90;77.30;;;;;;4946371;29;20031;-85
2023/04/10 04:07:17;;;;;;;17.38;13.77;;;11.90;77.30;;;;;;4945678;29;20396;-84
2023/04/10 04:09:42;;;;;;;17.83;13.90;;;11.90;77.50;;;;;;4945592;29;20038;-85
2023/04/10 04:12:08;;;;;;;18.23;14.60;;;11.90;77.40;;;;;;4945777;29;20027;-84
2023/04/10 04:14:33;;;;;;;17.25;13.60;;;11.90;77.30;;;;;;4945632;29;20703;-83
2023/04/10 04:16:59;;;;;;;17.30;13.75;;;11.90;77.40;;;;;;4945065;29;20027;-85
2023/04/10 04:19:25;;;;;;;17.83;13.75;;;11.90;77.30;;;;;;4944451;29;20027;-84
2023/04/10 04:21:50;;;;;;;17.83;14.27;;;11.90;77.30;;;;;;4945306;29;20034;-84
2023/04/10 04:24:16;;;;;;;18.00;13.70;;;11.90;77.30;;;;;;4947523;29;20023;-85
2023/04/10 04:26:41;;;;;;;17.50;13.70;;;11.90;77.30;;;;;;4947400;29;20024;-85
2023/04/10 04:29:07;;;;;;;16.75;13.38;;;11.90;77.20;;;;;;4947771;29;20105;-85
2023/04/10 04:31:32;;;;;;;18.67;14.07;;;11.90;77.20;;;;;;4946634;29;20027;-83
2023/04/10 04:33:59;;;;;;;17.88;14.38;;;11.90;77.20;;;;;;4947184;29;20027;-85
2023/04/10 04:36:25;;;;;;;18.35;14.38;;;11.90;77.30;;;;;;4947469;29;20062;-84
2023/04/10 04:38:50;;;;;;;16.17;12.95;;;11.90;77.30;;;;;;4946722;29;20051;-84
2023/04/10 04:41:16;;;;;;;18.23;13.60;;;11.90;77.30;;;;;;4946003;29;20392;-84
2023/04/10 04:43:41;;;;;;;18.08;13.75;;;11.90;77.30;;;;;;4963609;28;20031;-84
2023/04/10 04:46:07;;;;;;;17.38;14.07;;;11.90;77.70;;;;;;4945490;29;20492;-85
2023/04/10 04:48:34;;;;;;;16.70;12.93;;;11.90;77.20;;;;;;4956780;28;20031;-84
2023/04/10 04:51:00;;;;;;;17.75;14.02;;;11.90;76.90;;;;;;4942182;29;20059;-85
2023/04/10 04:53:25;;;;;;;17.38;13.73;;;11.90;77.10;;;;;;4944471;29;20031;-84
2023/04/10 04:55:51;;;;;;;16.67;13.73;;;11.90;76.90;;;;;;4944662;29;20047;-84
2023/04/10 04:58:16;;;;;;;17.50;13.75;;;11.90;77.20;;;;;;4943917;29;20019;-84
2023/04/10 05:00:42;;;;;;;17.20;13.63;;;11.90;77.10;;;;;;4959999;29;20078;-84
2023/04/10 05:03:07;;;;;;;18.05;13.45;;;11.90;77.10;;;;;;4939407;29;20366;-84
2023/04/10 05:05:33;;;;;;;17.38;13.45;;;11.90;77.10;;;;;;4943327;29;20030;-84
2023/04/10 05:07:58;;;;;;;16.77;12.77;;;11.90;77.20;;;;;;4943117;29;20019;-84
2023/04/10 05:10:24;;;;;;;16.15;12.77;;;11.90;77.10;;;;;;4942817;29;20489;-85
2023/04/10 05:12:50;;;;;;;17.00;13.18;;;11.90;77.10;;;;;;4943470;29;20499;-84
2023/04/10 05:15:15;;;;;;;17.00;13.27;;;11.90;77.10;;;;;;4960806;29;20019;-84
2023/04/10 05:17:41;;;;;;;16.55;12.85;;;11.90;77.00;;;;;;4942784;29;20030;-85
2023/04/10 05:20:07;;;;;;;17.00;12.52;;;11.90;77.00;;;;;;4942914;29;20027;-84
2023/04/10 05:22:32;;;;;;;17.10;13.38;;;11.90;76.90;;;;;;4942349;29;20053;-84
2023/04/10 05:24:58;;;;;;;16.75;13.25;;;11.90;76.90;;;;;;4942515;29;20023;-85
2023/04/10 05:27:24;;;;;;;17.83;13.40;;;11.90;76.80;;;;;;4942044;29;20067;-86
2023/04/10 05:29:49;;;;;;;15.77;12.30;;;11.90;76.90;;;;;;4959653;29;20102;-84
2023/04/10 05:32:15;;;;;;;17.20;13.73;;;11.90;76.80;;;;;;4940701;29;20031;-85
2023/04/10 05:34:40;;;;;;;16.73;12.38;;;11.90;76.80;;;;;;4939670;29;20015;-84
2023/04/10 05:37:07;;;;;;;17.08;12.98;;;12.00;77.40;;;;;;4939324;29;20066;-84
2023/04/10 05:39:32;;;;;;;16.45;12.88;;;11.90;76.80;;;;;;4939643;29;20027;-84
2023/04/10 05:41:58;;;;;;;16.85;12.90;;;11.90;76.80;;;;;;4939643;29;20031;-85
2023/04/10 05:44:23;;;;;;;16.45;12.80;;;12.00;76.80;;;;;;4941303;29;20057;-84
2023/04/10 05:46:49;;;;;;;16.33;12.68;;;12.00;76.70;;;;;;4939869;29;20031;-83
2023/04/10 05:49:15;;;;;;;16.33;12.52;;;12.00;76.70;;;;;;4939673;29;20025;-84
2023/04/10 05:51:41;;;;;;;15.20;11.88;;;12.00;76.60;;;;;;4940528;29;20023;-84
2023/04/10 05:54:06;;;;;;;16.85;13.20;;;12.00;76.50;;;;;;4940710;29;20571;-84
2023/04/10 05:56:32;;;;;;;17.40;13.07;;;12.00;76.50;;;;;;4940729;29;20613;-84
2023/04/10 05:58:57;;;;;;;15.43;12.05;;;12.00;76.50;;;;;;4958280;29;20073;-85
2023/04/10 06:01:23;;;;;;;16.52;12.45;;;12.00;76.40;;;;;;4940402;29;20035;-84
2023/04/10 06:03:48;;;;;;;17.40;13.07;;;12.00;76.30;;;;;;4939530;29;20122;-84
2023/04/10 06:06:14;;;;;;;15.27;12.10;;;12.00;76.40;;;;;;4938961;29;20038;-84
2023/04/10 06:08:40;;;;;;;15.68;12.05;;;12.10;76.20;;;;;;4939544;29;20050;-85
2023/04/10 06:11:05;;;;;;;16.42;13.00;;;12.10;76.00;;;;;;4955551;29;20520;-85
2023/04/10 06:13:32;;;;;;;15.40;12.32;;;12.10;76.10;;;;;;4957753;29;20019;-86
2023/04/10 06:15:57;;;;;;;15.60;11.95;;;12.10;76.10;;;;;;4933759;29;20038;-84
2023/04/10 06:18:23;;;;;;;15.30;11.90;;;12.10;76.00;;;;;;4930531;29;20023;-83
2023/04/10 06:20:48;;;;;;;16.02;12.40;;;12.00;76.00;;;;;;4933543;29;20071;-84
2023/04/10 06:23:14;;;;;;;15.65;11.75;;;12.10;76.00;;;;;;4935260;28;20038;-84
2023/04/10 06:25:40;;;;;;;15.98;12.52;;;12.10;76.00;;;;;;4952576;28;20365;-89
2023/04/10 07:11:30;;;;;;;13.65;10.20;;;12.40;75.30;;;;;;759248;23;20382;-86
2023/04/10 07:14:06;;;;;;;14.15;11.32;;;12.50;75.40;;;;;;4933958;29;20583;-86
2023/04/10 07:24:21;;;;;;;13.45;10.27;;;12.50;75.00;;;;;;4881302;29;20092;-88
2023/04/10 07:27:23;;;;;;;14.30;10.23;;;12.60;74.90;;;;;;4877104;29;20041;-87
2023/04/10 07:32:36;;;;;;;13.25;10.48;;;12.70;74.90;;;;;;4956512;29;20077;-81
2023/04/10 07:35:01;;;;;;;13.07;10.15;;;12.70;74.70;;;;;;4935457;29;20029;-79
2023/04/10 07:37:27;;;;;;;13.90;10.57;;;12.80;74.80;;;;;;4935864;29;20035;-80
2023/04/10 07:39:52;;;;;;;14.35;11.13;;;12.80;74.70;;;;;;4953313;29;20047;-85
2023/04/10 07:42:18;;;;;;;14.90;11.05;;;12.80;74.70;;;;;;4939018;29;20043;-87
2023/04/10 07:44:43;;;;;;;14.43;10.77;;;12.80;74.50;;;;;;4937243;29;20122;-88
2023/04/10 07:47:09;;;;;;;13.23;9.93;;;12.80;74.30;;;;;;4943329;29;20028;-84
2023/04/10 07:49:34;;;;;;;13.98;10.68;;;12.90;74.30;;;;;;4937120;29;20428;-86
2023/04/10 07:52:00;;;;;;;14.63;10.63;;;12.90;74.40;;;;;;4932942;29;20392;-89
2023/04/10 07:54:26;;;;;;;17.70;10.32;;;12.90;74.10;;;;;;4933941;29;20023;-85
2023/04/10 07:56:52;;;;;;;13.90;10.13;;;12.90;74.00;;;;;;4941912;29;20035;-85
2023/04/10 07:59:19;;;;;;;14.48;10.57;;;13.00;74.00;;;;;;4939779;29;20063;-88
2023/04/10 08:01:45;;;;;;;13.75;10.38;;;13.00;74.00;;;;;;4935844;29;20036;-87
2023/04/10 08:04:13;;;;;;;13.88;9.95;;;13.00;73.90;;;;;;4937048;29;20031;-85
2023/04/10 08:06:38;;;;;;;13.15;9.93;;;13.10;73.80;;;;;;4936633;29;20489;-87
2023/04/10 08:09:04;;;;;;;13.32;10.10;;;13.10;73.90;;;;;;4954937;29;20126;-86
2023/04/10 08:11:31;;;;;;;13.07;10.32;;;13.10;73.90;;;;;;4938633;29;20095;-85
2023/04/10 08:14:00;;;;;;;12.43;9.65;;;13.10;74.20;;;;;;4938588;29;20042;-85
2023/04/10 08:16:28;;;;;;;13.10;9.95;;;13.10;74.10;;;;;;4938659;29;20031;-85
2023/04/10 08:18:56;;;;;;;12.23;9.52;;;13.20;74.00;;;;;;4938913;29;20028;-84
2023/04/10 08:21:23;;;;;;;13.18;9.82;;;13.20;73.70;;;;;;4934675;29;20056;-85
2023/04/10 08:23:53;;;;;;;12.55;9.75;;;13.20;73.70;;;;;;4935338;29;20074;-84
2023/04/10 08:26:20;;;;;;;12.65;9.60;;;13.20;73.60;;;;;;4930267;29;20039;-85
2023/04/10 08:28:50;;;;;;;13.07;9.50;;;13.20;73.50;;;;;;4937915;29;20028;-85
2023/04/10 08:31:17;;;;;;;12.77;9.25;;;13.30;73.60;;;;;;4935031;29;20058;-87
2023/04/10 08:33:44;;;;;;;11.45;8.77;;;13.20;73.60;;;;;;4934443;29;20032;-85
2023/04/10 08:40:02;;;;;;;12.80;9.30;;;13.30;73.60;;;;;;4954984;28;20034;-84
2023/04/10 08:49:43;;;;;;;11.75;9.07;;;13.40;73.30;;;;;;4918002;29;20058;-83
2023/04/10 08:52:19;;;;;;;12.57;9.57;;;13.40;73.40;;;;;;4877702;29;20140;-86
2023/04/10 08:55:26;;;;;;;11.85;8.75;;;14.20;73.90;;;;;;4954422;29;20047;-85
2023/04/10 08:57:53;;;;;;;11.77;8.63;;;13.40;74.10;;;;;;4941734;23;20119;-86
2023/04/10 09:01:03;;;;;;;11.77;9.13;;;13.40;73.80;;;;;;4942557;29;20039;-87
2023/04/10 09:16:53;;;;;;;21.00;9.52;;;13.30;72.90;;;;;;4896716;29;20056;-80
2023/04/10 09:22:53;;;;;;;16.95;9.27;;;13.40;73.20;;;;;;4897651;29;20036;-84
2023/04/10 09:28:59;;;;;;;21.02;9.43;;;13.50;74.20;;;;;;4841374;29;20037;-83
2023/04/10 09:34:56;;;;;;;17.92;9.40;;;13.60;73.90;;;;;;4929781;29;20031;-85
2023/04/10 09:37:55;;;;;;;14.77;8.45;;;13.60;73.80;;;;;;4943017;28;20035;-85
2023/04/10 09:41:07;;;;;;;19.02;8.68;;;13.70;73.70;;;;;;4931463;29;20094;-85
2023/04/10 09:57:04;;;;;;;14.25;8.05;;;13.90;78.30;;;;;;4820921;29;20037;-84
2023/04/10 10:06:11;;;;;;;12.68;7.70;;;14.20;79.80;;;;;;4874789;29;20033;-86
2023/04/10 10:12:08;;;;;;;12.55;7.32;;;14.60;80.90;;;;;;4746949;30;20040;-86
2023/04/10 10:14:35;;;;;;;;;;;14.50;80.90;;;;;;4874377;29;20040;-88
2023/04/10 10:30:54;;;;;;;14.50;7.63;;;14.60;81.20;;;;;;4875519;29;20115;-83
2023/04/10 10:33:20;;;;;;;12.13;7.18;;;14.70;81.00;;;;;;4894816;29;20028;-85
2023/04/10 10:35:49;;;;;;;11.40;7.03;;;15.40;81.40;;;;;;4957745;28;20849;-87
2023/04/10 10:38:21;;;;;;;17.33;8.02;;;14.80;80.80;;;;;;4961151;28;20122;-89
2023/04/10 10:40:55;;;;;;;15.68;7.55;;;15.20;80.60;;;;;;4970789;28;20500;-89
2023/04/10 10:43:46;;;;;;;15.52;7.50;;;14.90;80.20;;;;;;4979722;28;20472;-85
2023/04/10 10:46:54;;;;;;;;;;;;;;;;;;;;;
2023/04/10 10:49:53;;;;;;;15.07;7.38;;;14.90;79.70;;;;;;4880833;29;20049;-86
2023/04/10 10:52:44;;;;;;;15.23;7.63;;;14.80;79.10;;;;;;4877699;29;20037;-85
2023/04/10 10:58:13;;;;;;;14.50;8.20;;;14.80;78.70;;;;;;4973946;23;20167;-86
2023/04/10 11:00:50;;;;;;;13.23;7.63;;;14.80;78.60;;;;;;4956058;29;20512;-85
2023/04/10 11:03:16;;;;;;;14.68;6.80;;;14.70;78.50;;;;;;4937614;29;20059;-85
2023/04/10 11:05:49;;;;;;;13.18;7.28;;;14.70;78.40;;;;;;4954095;29;20046;-82
2023/04/10 11:08:15;;;;;;;13.02;6.88;;;14.70;78.30;;;;;;4917182;29;20031;-86
2023/04/10 11:11:05;;;;;;;17.70;7.25;;;14.70;78.30;;;;;;4918308;29;20031;-82
2023/04/10 11:13:39;;;;;;;19.85;8.30;;;14.60;77.20;;;;;;4917449;29;20067;-85
2023/04/10 11:16:06;;;;;;;18.23;7.70;;;14.70;76.30;;;;;;4916810;29;20094;-83
2023/04/10 11:18:44;;;;;;;15.32;7.00;;;14.60;76.10;;;;;;4915570;29;20062;-83
2023/04/10 11:21:12;;;;;;;16.33;7.85;;;14.60;76.10;;;;;;4931377;29;20497;-83
2023/04/10 11:23:58;;;;;;;14.55;7.32;;;14.60;76.00;;;;;;4932030;29;20118;-87
2023/04/10 11:26:37;;;;;;;15.68;6.95;;;14.40;76.50;;;;;;4914976;29;20099;-84
2023/04/10 11:29:25;;;;;;;12.68;7.22;;;14.50;76.50;;;;;;4917161;29;20449;-85
2023/04/10 11:31:56;;;;;;;14.32;6.93;;;14.50;76.60;;;;;;4933979;29;20484;-85
2023/04/10 11:34:22;;;;;;;13.23;6.63;;;14.50;76.40;;;;;;4916660;29;20075;-87
2023/04/10 11:36:48;;;;;;;15.23;7.28;;;14.40;76.50;;;;;;4916576;29;20032;-84
2023/04/10 11:39:17;;;;;;;12.23;6.47;;;14.40;76.60;;;;;;4915915;29;20039;-83
2023/04/10 11:41:48;;;;;;;14.95;6.45;;;14.40;76.60;;;;;;4933188;29;20408;-85
2023/04/10 11:44:26;;;;;;;17.27;6.82;;;14.40;76.60;;;;;;4933042;29;20031;-84
2023/04/10 11:46:51;;;;;;;13.07;6.80;;;14.30;76.50;;;;;;4916090;29;20409;-87
2023/04/10 11:49:22;;;;;;;13.18;6.78;;;14.30;76.50;;;;;;4915233;29;20023;-83
2023/04/10 11:51:50;;;;;;;14.68;6.32;;;14.30;76.30;;;;;;4932308;29;20027;-84
2023/04/10 11:54:21;;;;;;;11.60;6.60;;;14.20;76.20;;;;;;4914680;29;20522;-85
2023/04/10 11:57:02;;;;;;;10.65;5.57;;;14.30;76.40;;;;;;4915417;29;20043;-86
2023/04/10 11:59:29;;;;;;;13.57;5.88;;;14.20;76.30;;;;;;4914941;29;20421;-86
2023/04/10 12:02:06;;;;;;;12.50;5.97;;;14.20;76.40;;;;;;4914564;29;20041;-83
2023/04/10 12:04:32;;;;;;;13.02;6.57;;;14.20;76.40;;;;;;4914440;29;20031;-84
2023/04/10 12:06:58;;;;;;;11.23;5.80;;;14.20;76.60;;;;;;4931539;29;20027;-84
2023/04/10 12:09:24;;;;;;;10.25;5.93;;;14.20;76.50;;;;;;4914184;29;20028;-83
2023/04/10 12:11:59;;;;;;;12.13;6.40;;;14.10;76.50;;;;;;4914011;29;20028;-85
2023/04/10 12:14:29;;;;;;;11.15;5.88;;;14.10;76.60;;;;;;4928901;29;20039;-84
2023/04/10 12:16:55;;;;;;;10.85;5.40;;;14.10;76.50;;;;;;4917209;29;20032;-86
2023/04/10 12:19:22;;;;;;;12.18;6.43;;;14.00;76.80;;;;;;4917753;29;20473;-83
2023/04/10 12:21:48;;;;;;;9.57;5.53;;;14.10;76.60;;;;;;4917201;29;20020;-84
2023/04/10 12:24:50;;;;;;;13.68;6.50;;;14.10;76.60;;;;;;4916740;29;20035;-86
2023/04/10 12:27:20;;;;;;;10.82;5.78;;;14.00;76.50;;;;;;4916904;29;20564;-83
2023/04/10 12:29:47;;;;;;;9.50;5.80;;;14.00;76.50;;;;;;4916422;29;20037;-84
2023/04/10 12:32:13;;;;;;;10.43;5.75;;;14.00;76.60;;;;;;4932045;29;20035;-82
2023/04/10 12:34:39;;;;;;;10.15;5.47;;;14.00;76.60;;;;;;4916750;29;20019;-83
2023/04/10 12:37:05;;;;;;;8.93;4.90;;;14.00;76.70;;;;;;4916052;29;20394;-83
2023/04/10 12:39:31;;;;;;;9.77;5.20;;;14.00;76.70;;;;;;4915147;29;20397;-82
2023/04/10 12:42:15;;;;;;;9.02;5.00;;;14.00;76.70;;;;;;4933867;29;20038;-83
2023/04/10 12:44:59;;;;;;;10.18;5.30;;;13.90;76.70;;;;;;4915432;29;20035;-86
2023/04/10 12:47:27;;;;;;;9.50;4.90;;;13.90;76.70;;;;;;4915659;29;20035;-83
2023/04/10 12:50:09;;;;;;;9.77;5.53;;;13.90;76.70;;;;;;4916307;29;20437;-84
2023/04/10 12:52:36;;;;;;;11.85;5.35;;;13.90;76.70;;;;;;4916068;29;20612;-85
2023/04/10 12:55:15;;;;;;;11.30;5.68;;;13.90;76.70;;;;;;4916071;29;20031;-87
2023/04/10 12:57:45;;;;;;;10.48;5.43;;;13.90;76.80;;;;;;4915250;29;20404;-83
2023/04/10 13:00:16;;;;;;;9.10;5.25;;;13.90;76.70;;;;;;4915587;29;20113;-88
2023/04/10 13:02:42;;;;;;;8.68;4.90;;;13.90;76.80;;;;;;4932586;29;20032;-84
2023/04/10 13:05:09;;;;;;;8.38;5.22;;;13.90;76.70;;;;;;4915342;29;20047;-86
2023/04/10 13:07:36;;;;;;;9.57;5.35;;;13.90;76.80;;;;;;4914992;29;20531;-83
2023/04/10 13:10:02;;;;;;;8.90;5.13;;;13.90;76.60;;;;;;4932773;29;20023;-83
2023/04/10 13:12:28;;;;;;;9.30;5.05;;;13.90;76.70;;;;;;4914601;29;20058;-84
2023/04/10 13:14:55;;;;;;;7.85;4.68;;;13.80;76.70;;;;;;4914799;29;20028;-84
2023/04/10 13:17:21;;;;;;;8.35;4.55;;;13.80;76.70;;;;;;4914264;29;20582;-82
2023/04/10 13:19:46;;;;;;;8.77;4.22;;;13.80;76.60;;;;;;4931553;29;20043;-83
2023/04/10 13:22:12;;;;;;;9.52;5.00;;;13.80;76.60;;;;;;4931276;29;20036;-82
2023/04/10 13:24:37;;;;;;;8.15;4.82;;;13.80;76.80;;;;;;4914983;29;20469;-82
2023/04/10 13:27:03;;;;;;;8.23;4.78;;;13.80;76.70;;;;;;4913977;29;20032;-83
2023/04/10 13:29:29;;;;;;;8.00;4.50;;;13.80;76.70;;;;;;4914564;29;20033;-82
2023/04/10 13:31:54;;;;;;;7.38;4.50;;;13.80;76.70;;;;;;4914309;29;20038;-87
2023/04/10 13:34:20;;;;;;;8.10;4.63;;;13.80;76.60;;;;;;4931110;29;20040;-83
2023/04/10 13:36:45;;;;;;;8.30;4.97;;;13.80;76.70;;;;;;4914014;29;20439;-87
2023/04/10 13:39:11;;;;;;;8.38;4.68;;;13.80;76.60;;;;;;4914416;29;20071;-83
2023/04/10 13:41:36;;;;;;;8.38;4.65;;;13.80;76.60;;;;;;4913842;29;20040;-84
2023/04/10 13:44:02;;;;;;;8.55;4.85;;;13.80;76.70;;;;;;4914212;29;20031;-87
2023/04/10 13:46:27;;;;;;;7.40;4.20;;;13.70;76.70;;;;;;4914042;29;20568;-83
2023/04/10 13:48:53;;;;;;;7.85;4.35;;;13.70;76.60;;;;;;4913755;29;20028;-82
2023/04/10 13:51:18;;;;;;;7.35;4.40;;;13.70;76.70;;;;;;4913848;29;20524;-85
2023/04/10 13:53:44;;;;;;;7.15;4.18;;;13.70;76.80;;;;;;4913751;29;20083;-86
2023/04/10 13:56:09;;;;;;;7.28;4.13;;;13.70;76.80;;;;;;4910835;29;20039;-83
2023/04/10 13:58:35;;;;;;;6.70;4.20;;;13.70;76.80;;;;;;4912145;29;20035;-88
2023/04/10 14:01:00;;;;;;;7.60;4.30;;;13.70;76.90;;;;;;4929831;29;20035;-86
2023/04/10 14:03:26;;;;;;;7.05;4.10;;;13.70;76.90;;;;;;4913232;29;20503;-84
2023/04/10 14:05:52;;;;;;;7.55;4.03;;;13.60;76.80;;;;;;4912674;29;20028;-83
2023/04/10 14:08:18;;;;;;;7.75;4.25;;;13.60;76.90;;;;;;4914137;29;20035;-85
2023/04/10 14:10:49;;;;;;;7.63;4.32;;;13.60;76.90;;;;;;4919089;29;20019;-84
2023/04/10 14:13:15;;;;;;;7.37;4.23;;;13.60;76.90;;;;;;4915888;29;20032;-86
2023/04/10 14:15:41;;;;;;;6.38;3.75;;;13.60;76.90;;;;;;4899379;29;20059;-84
2023/04/10 14:18:06;;;;;;;7.30;3.97;;;13.60;77.10;;;;;;4898918;29;20063;-85
2023/04/10 14:20:32;;;;;;;6.57;3.83;;;13.60;77.40;;;;;;4916330;29;20163;-86
2023/04/10 14:22:58;;;;;;;6.82;3.80;;;13.60;76.80;;;;;;4898705;29;20043;-83
2023/04/10 14:25:23;;;;;;;7.15;4.30;;;13.60;76.90;;;;;;4929907;29;20032;-84
2023/04/10 14:27:49;;;;;;;6.63;3.92;;;13.60;76.80;;;;;;4898079;29;20294;-85
2023/04/10 14:30:14;;;;;;;7.45;4.20;;;13.60;76.90;;;;;;4897748;29;20025;-84
2023/04/10 14:32:40;;;;;;;6.05;3.67;;;13.60;76.90;;;;;;4929645;29;20028;-86
2023/04/10 14:35:06;;;;;;;6.68;4.05;;;13.60;76.80;;;;;;4929714;29;20035;-84
2023/04/10 14:37:32;;;;;;;6.55;4.05;;;13.60;76.80;;;;;;4896988;29;20036;-85
2023/04/10 14:39:57;;;;;;;7.85;4.15;;;13.60;76.80;;;;;;4910771;29;20504;-84
2023/04/10 14:42:23;;;;;;;6.22;3.67;;;13.60;76.80;;;;;;4928413;29;20039;-88
2023/04/10 14:44:48;;;;;;;7.43;4.05;;;13.60;76.80;;;;;;4927669;29;20442;-82
2023/04/10 14:47:14;;;;;;;6.80;3.70;;;13.60;76.80;;;;;;4925374;29;20040;-86
2023/04/10 14:49:40;;;;;;;6.05;3.30;;;13.60;76.80;;;;;;4896128;29;20029;-85